Schedule Details


Flight Number: CTN651
Departure: Kastela (LDSP) at 06:15
Arrival: Franjo Tudman (LDZA) at 07:00
Route: SIRMI M725 RUDIK

Weather Information
LDSP 172300Z AUTO 26001KT CAVOK 21/15 Q1017
LDZA 172300Z 00000KT CAVOK 18/15 Q1017 NOSIG
Schedule Frequency

Route Map